Campo Alegre, Brazil
Current Conditions -  °F | °C
As of 5:00 AM on Monday 20 Oct 2014 (Local Time) from SBJV Reporting Station
Broken Clouds Broken Clouds  
Wind Chill: 68°   Ceiling: 1700
Heat Index: 68°   Visibility: 6mi
Dew Point: 68°   Wind: 0mph
Humidity: 100%   Direction: NA
Pressure: 29.94"   Gusts: NA
Location:  26.19°S, 49.27°W
Report Text: SBJV 200800Z 00000KT 9999 BKN017 BKN030 20/20 Q1014
Loading
Personal Weather Stations






























Interactive Weather Map
Tropical Storm Tracking
New forecast layout! Learn more

10-Day Weather Forecast

Advertisements
Track Severe Weather on mobile